sensor_id;sensor_type;location;lat;lon;timestamp;P1;durP1;ratioP1;P2;durP2;ratioP2
18383;SDS011;9318;48.644;9.456;2023-09-19T00:00:55;0.60;;;0.60;;
18383;SDS011;9318;48.644;9.456;2023-09-19T00:03:23;0.68;;;0.68;;
18383;SDS011;9318;48.644;9.456;2023-09-19T00:05:52;0.80;;;0.80;;
18383;SDS011;9318;48.644;9.456;2023-09-19T00:08:20;0.70;;;0.70;;
18383;SDS011;9318;48.644;9.456;2023-09-19T00:10:50;0.75;;;0.75;;
18383;SDS011;9318;48.644;9.456;2023-09-19T00:13:17;0.70;;;0.70;;
18383;SDS011;9318;48.644;9.456;2023-09-19T00:15:44;0.80;;;0.80;;
18383;SDS011;9318;48.644;9.456;2023-09-19T00:18:13;0.73;;;0.73;;
18383;SDS011;9318;48.644;9.456;2023-09-19T00:20:40;0.80;;;0.80;;
18383;SDS011;9318;48.644;9.456;2023-09-19T00:23:09;0.80;;;0.80;;
18383;SDS011;9318;48.644;9.456;2023-09-19T00:25:36;0.70;;;0.70;;
18383;SDS011;9318;48.644;9.456;2023-09-19T00:28:03;0.68;;;0.68;;
18383;SDS011;9318;48.644;9.456;2023-09-19T00:30:32;0.70;;;0.70;;
18383;SDS011;9318;48.644;9.456;2023-09-19T00:32:59;0.65;;;0.65;;
18383;SDS011;9318;48.644;9.456;2023-09-19T00:35:28;0.70;;;0.70;;
18383;SDS011;9318;48.644;9.456;2023-09-19T00:37:54;0.90;;;0.90;;
18383;SDS011;9318;48.644;9.456;2023-09-19T00:40:23;0.73;;;0.73;;
18383;SDS011;9318;48.644;9.456;2023-09-19T00:42:51;0.80;;;0.80;;
18383;SDS011;9318;48.644;9.456;2023-09-19T00:45:18;0.70;;;0.70;;
18383;SDS011;9318;48.644;9.456;2023-09-19T00:47:46;0.70;;;0.70;;
18383;SDS011;9318;48.644;9.456;2023-09-19T00:50:15;0.80;;;0.80;;
18383;SDS011;9318;48.644;9.456;2023-09-19T00:52:44;0.80;;;0.80;;
18383;SDS011;9318;48.644;9.456;2023-09-19T00:55:14;0.90;;;0.90;;
18383;SDS011;9318;48.644;9.456;2023-09-19T00:57:46;0.80;;;0.80;;
18383;SDS011;9318;48.644;9.456;2023-09-19T01:00:15;0.80;;;0.80;;
18383;SDS011;9318;48.644;9.456;2023-09-19T01:02:43;0.70;;;0.70;;
18383;SDS011;9318;48.644;9.456;2023-09-19T01:05:11;0.82;;;0.82;;
18383;SDS011;9318;48.644;9.456;2023-09-19T01:07:39;0.80;;;0.80;;
18383;SDS011;9318;48.644;9.456;2023-09-19T01:10:06;0.80;;;0.80;;
18383;SDS011;9318;48.644;9.456;2023-09-19T01:12:38;0.80;;;0.80;;
18383;SDS011;9318;48.644;9.456;2023-09-19T01:15:17;0.73;;;0.73;;
18383;SDS011;9318;48.644;9.456;2023-09-19T01:17:49;0.77;;;0.77;;
18383;SDS011;9318;48.644;9.456;2023-09-19T01:20:25;0.70;;;0.70;;
18383;SDS011;9318;48.644;9.456;2023-09-19T01:23:06;0.60;;;0.60;;
18383;SDS011;9318;48.644;9.456;2023-09-19T01:25:50;0.80;;;0.80;;
18383;SDS011;9318;48.644;9.456;2023-09-19T01:28:33;0.90;;;0.90;;
18383;SDS011;9318;48.644;9.456;2023-09-19T01:31:10;0.70;;;0.70;;
18383;SDS011;9318;48.644;9.456;2023-09-19T01:33:54;0.80;;;0.80;;
18383;SDS011;9318;48.644;9.456;2023-09-19T01:36:26;0.60;;;0.60;;
18383;SDS011;9318;48.644;9.456;2023-09-19T01:38:54;0.80;;;0.80;;
18383;SDS011;9318;48.644;9.456;2023-09-19T01:41:25;0.77;;;0.77;;
18383;SDS011;9318;48.644;9.456;2023-09-19T01:43:57;0.60;;;0.60;;
18383;SDS011;9318;48.644;9.456;2023-09-19T01:46:32;0.80;;;0.80;;
18383;SDS011;9318;48.644;9.456;2023-09-19T01:49:04;0.80;;;0.80;;
18383;SDS011;9318;48.644;9.456;2023-09-19T01:51:42;0.80;;;0.80;;
18383;SDS011;9318;48.644;9.456;2023-09-19T01:54:24;0.80;;;0.80;;
18383;SDS011;9318;48.644;9.456;2023-09-19T01:56:57;0.82;;;0.82;;
18383;SDS011;9318;48.644;9.456;2023-09-19T01:59:31;0.80;;;0.80;;
18383;SDS011;9318;48.644;9.456;2023-09-19T02:02:04;0.80;;;0.80;;
18383;SDS011;9318;48.644;9.456;2023-09-19T02:04:32;0.80;;;0.80;;
18383;SDS011;9318;48.644;9.456;2023-09-19T02:06:59;0.60;;;0.60;;
18383;SDS011;9318;48.644;9.456;2023-09-19T02:09:27;0.80;;;0.80;;
18383;SDS011;9318;48.644;9.456;2023-09-19T02:11:54;0.90;;;0.90;;
18383;SDS011;9318;48.644;9.456;2023-09-19T02:14:22;0.70;;;0.70;;
18383;SDS011;9318;48.644;9.456;2023-09-19T02:16:48;0.82;;;0.82;;
18383;SDS011;9318;48.644;9.456;2023-09-19T02:19:17;0.80;;;0.80;;
18383;SDS011;9318;48.644;9.456;2023-09-19T02:21:43;0.75;;;0.75;;
18383;SDS011;9318;48.644;9.456;2023-09-19T02:24:10;0.70;;;0.70;;
18383;SDS011;9318;48.644;9.456;2023-09-19T02:26:37;0.80;;;0.80;;
18383;SDS011;9318;48.644;9.456;2023-09-19T02:29:04;0.80;;;0.80;;
18383;SDS011;9318;48.644;9.456;2023-09-19T02:31:31;0.80;;;0.80;;
18383;SDS011;9318;48.644;9.456;2023-09-19T02:33:57;0.73;;;0.73;;
18383;SDS011;9318;48.644;9.456;2023-09-19T02:36:26;0.80;;;0.80;;
18383;SDS011;9318;48.644;9.456;2023-09-19T02:38:54;0.90;;;0.90;;
18383;SDS011;9318;48.644;9.456;2023-09-19T02:41:21;0.80;;;0.80;;
18383;SDS011;9318;48.644;9.456;2023-09-19T02:43:48;0.70;;;0.70;;
18383;SDS011;9318;48.644;9.456;2023-09-19T02:46:15;0.70;;;0.70;;
18383;SDS011;9318;48.644;9.456;2023-09-19T02:48:43;0.70;;;0.70;;
18383;SDS011;9318;48.644;9.456;2023-09-19T02:51:09;0.75;;;0.75;;
18383;SDS011;9318;48.644;9.456;2023-09-19T02:53:38;0.88;;;0.88;;
18383;SDS011;9318;48.644;9.456;2023-09-19T02:56:04;0.85;;;0.85;;
18383;SDS011;9318;48.644;9.456;2023-09-19T02:58:32;0.70;;;0.70;;
18383;SDS011;9318;48.644;9.456;2023-09-19T03:01:07;0.80;;;0.80;;
18383;SDS011;9318;48.644;9.456;2023-09-19T03:03:34;0.70;;;0.70;;
18383;SDS011;9318;48.644;9.456;2023-09-19T03:06:02;0.77;;;0.77;;
18383;SDS011;9318;48.644;9.456;2023-09-19T03:08:29;0.80;;;0.80;;
18383;SDS011;9318;48.644;9.456;2023-09-19T03:10:57;0.70;;;0.70;;
18383;SDS011;9318;48.644;9.456;2023-09-19T03:13:25;0.80;;;0.80;;
18383;SDS011;9318;48.644;9.456;2023-09-19T03:15:54;0.70;;;0.70;;
18383;SDS011;9318;48.644;9.456;2023-09-19T03:18:23;0.70;;;0.70;;
18383;SDS011;9318;48.644;9.456;2023-09-19T03:20:54;0.85;;;0.85;;
18383;SDS011;9318;48.644;9.456;2023-09-19T03:23:21;0.80;;;0.80;;
18383;SDS011;9318;48.644;9.456;2023-09-19T03:25:48;0.85;;;0.85;;
18383;SDS011;9318;48.644;9.456;2023-09-19T03:28:16;0.90;;;0.90;;
18383;SDS011;9318;48.644;9.456;2023-09-19T03:30:43;0.73;;;0.73;;
18383;SDS011;9318;48.644;9.456;2023-09-19T03:33:11;0.80;;;0.80;;
18383;SDS011;9318;48.644;9.456;2023-09-19T03:35:39;0.80;;;0.80;;
18383;SDS011;9318;48.644;9.456;2023-09-19T03:38:06;0.70;;;0.70;;
18383;SDS011;9318;48.644;9.456;2023-09-19T03:40:33;0.70;;;0.70;;
18383;SDS011;9318;48.644;9.456;2023-09-19T03:43:03;0.70;;;0.70;;
18383;SDS011;9318;48.644;9.456;2023-09-19T03:45:31;1.00;;;1.00;;
18383;SDS011;9318;48.644;9.456;2023-09-19T03:47:57;0.90;;;0.90;;
18383;SDS011;9318;48.644;9.456;2023-09-19T03:50:24;0.80;;;0.80;;
18383;SDS011;9318;48.644;9.456;2023-09-19T03:52:55;0.75;;;0.75;;
18383;SDS011;9318;48.644;9.456;2023-09-19T03:55:22;0.77;;;0.77;;
18383;SDS011;9318;48.644;9.456;2023-09-19T03:57:49;0.80;;;0.80;;
18383;SDS011;9318;48.644;9.456;2023-09-19T04:00:17;0.65;;;0.65;;
18383;SDS011;9318;48.644;9.456;2023-09-19T04:02:48;0.82;;;0.82;;
18383;SDS011;9318;48.644;9.456;2023-09-19T04:05:14;0.80;;;0.80;;
18383;SDS011;9318;48.644;9.456;2023-09-19T04:07:41;0.80;;;0.80;;
18383;SDS011;9318;48.644;9.456;2023-09-19T04:10:08;0.85;;;0.85;;
18383;SDS011;9318;48.644;9.456;2023-09-19T04:12:37;0.82;;;0.82;;
18383;SDS011;9318;48.644;9.456;2023-09-19T04:15:04;0.80;;;0.80;;
18383;SDS011;9318;48.644;9.456;2023-09-19T04:17:32;0.70;;;0.70;;
18383;SDS011;9318;48.644;9.456;2023-09-19T04:20:00;0.82;;;0.82;;
18383;SDS011;9318;48.644;9.456;2023-09-19T04:22:29;0.80;;;0.80;;
18383;SDS011;9318;48.644;9.456;2023-09-19T04:24:56;0.80;;;0.80;;
18383;SDS011;9318;48.644;9.456;2023-09-19T04:27:23;0.90;;;0.90;;
18383;SDS011;9318;48.644;9.456;2023-09-19T04:29:49;0.80;;;0.80;;
18383;SDS011;9318;48.644;9.456;2023-09-19T04:32:18;0.85;;;0.85;;
18383;SDS011;9318;48.644;9.456;2023-09-19T04:34:44;0.80;;;0.80;;
18383;SDS011;9318;48.644;9.456;2023-09-19T04:37:16;0.80;;;0.80;;
18383;SDS011;9318;48.644;9.456;2023-09-19T04:39:43;0.70;;;0.70;;
18383;SDS011;9318;48.644;9.456;2023-09-19T04:42:10;0.85;;;0.85;;
18383;SDS011;9318;48.644;9.456;2023-09-19T04:44:39;0.75;;;0.75;;
18383;SDS011;9318;48.644;9.456;2023-09-19T04:47:07;0.85;;;0.85;;
18383;SDS011;9318;48.644;9.456;2023-09-19T04:49:33;0.80;;;0.80;;
18383;SDS011;9318;48.644;9.456;2023-09-19T04:52:00;0.80;;;0.80;;
18383;SDS011;9318;48.644;9.456;2023-09-19T04:54:28;0.80;;;0.80;;
18383;SDS011;9318;48.644;9.456;2023-09-19T04:56:55;0.70;;;0.70;;
18383;SDS011;9318;48.644;9.456;2023-09-19T04:59:22;0.80;;;0.80;;
18383;SDS011;9318;48.644;9.456;2023-09-19T05:01:48;0.75;;;0.75;;
18383;SDS011;9318;48.644;9.456;2023-09-19T05:04:15;0.82;;;0.82;;
18383;SDS011;9318;48.644;9.456;2023-09-19T05:06:42;0.80;;;0.80;;
18383;SDS011;9318;48.644;9.456;2023-09-19T05:09:09;0.80;;;0.80;;
18383;SDS011;9318;48.644;9.456;2023-09-19T05:11:37;0.70;;;0.70;;
18383;SDS011;9318;48.644;9.456;2023-09-19T05:14:04;0.80;;;0.80;;
18383;SDS011;9318;48.644;9.456;2023-09-19T05:16:30;0.80;;;0.80;;
18383;SDS011;9318;48.644;9.456;2023-09-19T05:18:57;0.82;;;0.82;;
18383;SDS011;9318;48.644;9.456;2023-09-19T05:21:25;0.80;;;0.80;;
18383;SDS011;9318;48.644;9.456;2023-09-19T05:23:53;0.75;;;0.75;;
18383;SDS011;9318;48.644;9.456;2023-09-19T05:26:20;0.80;;;0.80;;
18383;SDS011;9318;48.644;9.456;2023-09-19T05:28:49;0.90;;;0.90;;
18383;SDS011;9318;48.644;9.456;2023-09-19T05:31:15;0.80;;;0.80;;
18383;SDS011;9318;48.644;9.456;2023-09-19T05:33:42;0.80;;;0.80;;
18383;SDS011;9318;48.644;9.456;2023-09-19T05:36:09;0.70;;;0.70;;
18383;SDS011;9318;48.644;9.456;2023-09-19T05:38:37;0.80;;;0.80;;
18383;SDS011;9318;48.644;9.456;2023-09-19T05:41:05;0.80;;;0.80;;
18383;SDS011;9318;48.644;9.456;2023-09-19T05:43:33;0.70;;;0.70;;
18383;SDS011;9318;48.644;9.456;2023-09-19T05:46:01;0.80;;;0.80;;
18383;SDS011;9318;48.644;9.456;2023-09-19T05:48:28;0.80;;;0.80;;
18383;SDS011;9318;48.644;9.456;2023-09-19T05:50:55;0.80;;;0.80;;
18383;SDS011;9318;48.644;9.456;2023-09-19T05:53:22;0.90;;;0.90;;
18383;SDS011;9318;48.644;9.456;2023-09-19T05:55:49;0.93;;;0.93;;
18383;SDS011;9318;48.644;9.456;2023-09-19T05:58:18;0.80;;;0.80;;
18383;SDS011;9318;48.644;9.456;2023-09-19T06:00:45;0.80;;;0.80;;
18383;SDS011;9318;48.644;9.456;2023-09-19T06:03:14;0.80;;;0.80;;
18383;SDS011;9318;48.644;9.456;2023-09-19T06:05:42;0.80;;;0.80;;
18383;SDS011;9318;48.644;9.456;2023-09-19T06:08:11;0.82;;;0.82;;
18383;SDS011;9318;48.644;9.456;2023-09-19T06:10:38;0.85;;;0.85;;
18383;SDS011;9318;48.644;9.456;2023-09-19T06:13:05;0.90;;;0.90;;
18383;SDS011;9318;48.644;9.456;2023-09-19T06:15:34;0.88;;;0.88;;
18383;SDS011;9318;48.644;9.456;2023-09-19T06:18:01;0.80;;;0.80;;
18383;SDS011;9318;48.644;9.456;2023-09-19T06:20:31;0.80;;;0.80;;
18383;SDS011;9318;48.644;9.456;2023-09-19T06:22:58;0.95;;;0.95;;
18383;SDS011;9318;48.644;9.456;2023-09-19T06:25:26;0.80;;;0.80;;
18383;SDS011;9318;48.644;9.456;2023-09-19T06:27:53;0.90;;;0.90;;
18383;SDS011;9318;48.644;9.456;2023-09-19T06:30:21;0.82;;;0.82;;
18383;SDS011;9318;48.644;9.456;2023-09-19T06:32:49;0.90;;;0.90;;
18383;SDS011;9318;48.644;9.456;2023-09-19T06:35:15;0.80;;;0.80;;
18383;SDS011;9318;48.644;9.456;2023-09-19T06:37:44;0.98;;;0.98;;
18383;SDS011;9318;48.644;9.456;2023-09-19T06:40:11;0.87;;;0.87;;
18383;SDS011;9318;48.644;9.456;2023-09-19T06:42:39;0.90;;;0.90;;
18383;SDS011;9318;48.644;9.456;2023-09-19T06:45:07;0.90;;;0.90;;
18383;SDS011;9318;48.644;9.456;2023-09-19T06:47:36;0.93;;;0.93;;
18383;SDS011;9318;48.644;9.456;2023-09-19T06:50:03;1.00;;;1.00;;
18383;SDS011;9318;48.644;9.456;2023-09-19T06:52:30;0.90;;;0.90;;
18383;SDS011;9318;48.644;9.456;2023-09-19T06:54:59;0.90;;;0.90;;
18383;SDS011;9318;48.644;9.456;2023-09-19T06:57:31;0.80;;;0.80;;
18383;SDS011;9318;48.644;9.456;2023-09-19T06:59:58;0.90;;;0.90;;
18383;SDS011;9318;48.644;9.456;2023-09-19T07:02:26;0.80;;;0.80;;
18383;SDS011;9318;48.644;9.456;2023-09-19T07:04:53;0.90;;;0.90;;
18383;SDS011;9318;48.644;9.456;2023-09-19T07:07:20;0.90;;;0.90;;
18383;SDS011;9318;48.644;9.456;2023-09-19T07:09:46;0.88;;;0.88;;
18383;SDS011;9318;48.644;9.456;2023-09-19T07:12:15;0.85;;;0.85;;
18383;SDS011;9318;48.644;9.456;2023-09-19T07:14:43;0.90;;;0.90;;
18383;SDS011;9318;48.644;9.456;2023-09-19T07:17:09;0.80;;;0.80;;
18383;SDS011;9318;48.644;9.456;2023-09-19T07:19:36;0.95;;;0.95;;
18383;SDS011;9318;48.644;9.456;2023-09-19T07:22:03;0.80;;;0.80;;
18383;SDS011;9318;48.644;9.456;2023-09-19T07:24:30;0.85;;;0.85;;
18383;SDS011;9318;48.644;9.456;2023-09-19T07:26:57;0.90;;;0.90;;
18383;SDS011;9318;48.644;9.456;2023-09-19T07:29:25;0.75;;;0.75;;
18383;SDS011;9318;48.644;9.456;2023-09-19T07:31:52;0.80;;;0.80;;
18383;SDS011;9318;48.644;9.456;2023-09-19T07:34:19;0.80;;;0.80;;
18383;SDS011;9318;48.644;9.456;2023-09-19T07:36:46;0.70;;;0.70;;
18383;SDS011;9318;48.644;9.456;2023-09-19T07:39:13;0.70;;;0.70;;
18383;SDS011;9318;48.644;9.456;2023-09-19T07:41:40;0.70;;;0.70;;
18383;SDS011;9318;48.644;9.456;2023-09-19T07:44:07;0.75;;;0.75;;
18383;SDS011;9318;48.644;9.456;2023-09-19T07:46:36;0.70;;;0.70;;
18383;SDS011;9318;48.644;9.456;2023-09-19T07:49:03;0.70;;;0.70;;
18383;SDS011;9318;48.644;9.456;2023-09-19T07:51:30;0.60;;;0.60;;
18383;SDS011;9318;48.644;9.456;2023-09-19T07:53:58;0.60;;;0.60;;
18383;SDS011;9318;48.644;9.456;2023-09-19T07:56:25;0.60;;;0.60;;
18383;SDS011;9318;48.644;9.456;2023-09-19T07:58:52;0.60;;;0.60;;
18383;SDS011;9318;48.644;9.456;2023-09-19T08:01:19;0.60;;;0.60;;
18383;SDS011;9318;48.644;9.456;2023-09-19T08:03:50;0.60;;;0.60;;
18383;SDS011;9318;48.644;9.456;2023-09-19T08:06:17;0.60;;;0.60;;
18383;SDS011;9318;48.644;9.456;2023-09-19T08:08:44;0.40;;;0.40;;
18383;SDS011;9318;48.644;9.456;2023-09-19T08:11:10;0.50;;;0.50;;
18383;SDS011;9318;48.644;9.456;2023-09-19T08:13:37;0.60;;;0.60;;
18383;SDS011;9318;48.644;9.456;2023-09-19T08:16:08;0.50;;;0.50;;
18383;SDS011;9318;48.644;9.456;2023-09-19T08:18:35;0.60;;;0.60;;
18383;SDS011;9318;48.644;9.456;2023-09-19T08:21:04;0.50;;;0.50;;
18383;SDS011;9318;48.644;9.456;2023-09-19T08:23:33;0.60;;;0.60;;
18383;SDS011;9318;48.644;9.456;2023-09-19T08:26:00;0.60;;;0.60;;
18383;SDS011;9318;48.644;9.456;2023-09-19T08:28:31;0.50;;;0.50;;
18383;SDS011;9318;48.644;9.456;2023-09-19T08:31:01;0.45;;;0.45;;
18383;SDS011;9318;48.644;9.456;2023-09-19T08:33:29;0.43;;;0.43;;
18383;SDS011;9318;48.644;9.456;2023-09-19T08:35:57;0.40;;;0.40;;
18383;SDS011;9318;48.644;9.456;2023-09-19T08:38:25;0.50;;;0.50;;
18383;SDS011;9318;48.644;9.456;2023-09-19T08:40:54;0.40;;;0.40;;
18383;SDS011;9318;48.644;9.456;2023-09-19T08:43:23;0.30;;;0.30;;
18383;SDS011;9318;48.644;9.456;2023-09-19T08:45:50;0.40;;;0.40;;
18383;SDS011;9318;48.644;9.456;2023-09-19T08:48:22;0.40;;;0.40;;
18383;SDS011;9318;48.644;9.456;2023-09-19T08:50:56;0.50;;;0.50;;
18383;SDS011;9318;48.644;9.456;2023-09-19T08:53:29;0.30;;;0.30;;
18383;SDS011;9318;48.644;9.456;2023-09-19T08:56:01;0.40;;;0.40;;
18383;SDS011;9318;48.644;9.456;2023-09-19T08:58:44;0.50;;;0.50;;
18383;SDS011;9318;48.644;9.456;2023-09-19T09:01:15;0.40;;;0.40;;
18383;SDS011;9318;48.644;9.456;2023-09-19T09:03:42;0.50;;;0.50;;
18383;SDS011;9318;48.644;9.456;2023-09-19T09:06:13;0.43;;;0.43;;
18383;SDS011;9318;48.644;9.456;2023-09-19T09:08:43;0.50;;;0.50;;
18383;SDS011;9318;48.644;9.456;2023-09-19T09:11:10;0.50;;;0.50;;
18383;SDS011;9318;48.644;9.456;2023-09-19T09:13:37;0.45;;;0.45;;
18383;SDS011;9318;48.644;9.456;2023-09-19T09:16:06;0.57;;;0.57;;
18383;SDS011;9318;48.644;9.456;2023-09-19T09:18:33;0.60;;;0.60;;
18383;SDS011;9318;48.644;9.456;2023-09-19T09:21:00;0.60;;;0.60;;
18383;SDS011;9318;48.644;9.456;2023-09-19T09:23:27;0.60;;;0.60;;
18383;SDS011;9318;48.644;9.456;2023-09-19T09:25:56;0.60;;;0.60;;
18383;SDS011;9318;48.644;9.456;2023-09-19T09:28:28;0.60;;;0.60;;
18383;SDS011;9318;48.644;9.456;2023-09-19T09:30:55;0.60;;;0.60;;
18383;SDS011;9318;48.644;9.456;2023-09-19T09:33:23;0.70;;;0.70;;
18383;SDS011;9318;48.644;9.456;2023-09-19T09:35:50;0.70;;;0.70;;
18383;SDS011;9318;48.644;9.456;2023-09-19T09:38:21;0.70;;;0.70;;
18383;SDS011;9318;48.644;9.456;2023-09-19T09:40:52;0.60;;;0.60;;
18383;SDS011;9318;48.644;9.456;2023-09-19T09:43:29;0.70;;;0.70;;
18383;SDS011;9318;48.644;9.456;2023-09-19T09:46:10;0.70;;;0.70;;
18383;SDS011;9318;48.644;9.456;2023-09-19T09:48:56;0.60;;;0.60;;
18383;SDS011;9318;48.644;9.456;2023-09-19T09:51:45;0.60;;;0.60;;
18383;SDS011;9318;48.644;9.456;2023-09-19T09:54:22;0.50;;;0.50;;
18383;SDS011;9318;48.644;9.456;2023-09-19T09:56:52;0.50;;;0.50;;
18383;SDS011;9318;48.644;9.456;2023-09-19T09:59:27;0.50;;;0.50;;
18383;SDS011;9318;48.644;9.456;2023-09-19T10:02:12;0.50;;;0.50;;
18383;SDS011;9318;48.644;9.456;2023-09-19T10:04:41;0.55;;;0.55;;
18383;SDS011;9318;48.644;9.456;2023-09-19T10:07:24;0.50;;;0.50;;
18383;SDS011;9318;48.644;9.456;2023-09-19T10:09:52;0.40;;;0.40;;
18383;SDS011;9318;48.644;9.456;2023-09-19T10:12:24;0.45;;;0.45;;
18383;SDS011;9318;48.644;9.456;2023-09-19T10:14:55;0.38;;;0.38;;
18383;SDS011;9318;48.644;9.456;2023-09-19T10:17:26;0.30;;;0.30;;
18383;SDS011;9318;48.644;9.456;2023-09-19T10:19:55;0.50;;;0.50;;
18383;SDS011;9318;48.644;9.456;2023-09-19T10:22:23;0.60;;;0.60;;
18383;SDS011;9318;48.644;9.456;2023-09-19T10:24:52;0.50;;;0.50;;
18383;SDS011;9318;48.644;9.456;2023-09-19T10:27:20;0.50;;;0.50;;
18383;SDS011;9318;48.644;9.456;2023-09-19T10:29:48;0.40;;;0.40;;
18383;SDS011;9318;48.644;9.456;2023-09-19T10:32:17;0.40;;;0.40;;
18383;SDS011;9318;48.644;9.456;2023-09-19T10:34:45;0.50;;;0.50;;
18383;SDS011;9318;48.644;9.456;2023-09-19T10:37:13;0.40;;;0.40;;
18383;SDS011;9318;48.644;9.456;2023-09-19T10:39:45;0.40;;;0.40;;
18383;SDS011;9318;48.644;9.456;2023-09-19T10:42:14;0.50;;;0.50;;
18383;SDS011;9318;48.644;9.456;2023-09-19T10:44:45;0.40;;;0.40;;
18383;SDS011;9318;48.644;9.456;2023-09-19T10:47:14;0.40;;;0.40;;
18383;SDS011;9318;48.644;9.456;2023-09-19T10:49:45;0.43;;;0.43;;
18383;SDS011;9318;48.644;9.456;2023-09-19T10:52:12;0.40;;;0.40;;
18383;SDS011;9318;48.644;9.456;2023-09-19T10:54:45;0.50;;;0.50;;
18383;SDS011;9318;48.644;9.456;2023-09-19T10:57:18;0.45;;;0.45;;
18383;SDS011;9318;48.644;9.456;2023-09-19T11:00:00;0.40;;;0.40;;
18383;SDS011;9318;48.644;9.456;2023-09-19T11:02:31;0.50;;;0.50;;
18383;SDS011;9318;48.644;9.456;2023-09-19T11:05:11;0.40;;;0.40;;
18383;SDS011;9318;48.644;9.456;2023-09-19T11:13:23;0.60;;;0.60;;
18383;SDS011;9318;48.644;9.456;2023-09-19T11:18:51;0.50;;;0.50;;
18383;SDS011;9318;48.644;9.456;2023-09-19T11:24:32;0.60;;;0.60;;
18383;SDS011;9318;48.644;9.456;2023-09-19T11:27:11;0.50;;;0.50;;
18383;SDS011;9318;48.644;9.456;2023-09-19T11:29:39;0.60;;;0.60;;
18383;SDS011;9318;48.644;9.456;2023-09-19T11:32:06;0.65;;;0.65;;
18383;SDS011;9318;48.644;9.456;2023-09-19T11:40:35;0.60;;;0.60;;
18383;SDS011;9318;48.644;9.456;2023-09-19T11:46:05;0.50;;;0.50;;
18383;SDS011;9318;48.644;9.456;2023-09-19T11:48:32;0.50;;;0.50;;
18383;SDS011;9318;48.644;9.456;2023-09-19T11:51:09;0.70;;;0.70;;
18383;SDS011;9318;48.644;9.456;2023-09-19T11:53:46;0.50;;;0.50;;
18383;SDS011;9318;48.644;9.456;2023-09-19T11:56:15;0.60;;;0.60;;
18383;SDS011;9318;48.644;9.456;2023-09-19T11:58:43;0.50;;;0.50;;
18383;SDS011;9318;48.644;9.456;2023-09-19T12:01:11;0.50;;;0.50;;
18383;SDS011;9318;48.644;9.456;2023-09-19T12:03:45;0.60;;;0.60;;
18383;SDS011;9318;48.644;9.456;2023-09-19T12:06:14;0.60;;;0.60;;
18383;SDS011;9318;48.644;9.456;2023-09-19T12:08:42;0.60;;;0.60;;
18383;SDS011;9318;48.644;9.456;2023-09-19T12:11:13;0.50;;;0.50;;
18383;SDS011;9318;48.644;9.456;2023-09-19T12:13:41;0.52;;;0.52;;
18383;SDS011;9318;48.644;9.456;2023-09-19T12:16:13;0.50;;;0.50;;
18383;SDS011;9318;48.644;9.456;2023-09-19T12:18:41;0.60;;;0.60;;
18383;SDS011;9318;48.644;9.456;2023-09-19T12:21:20;0.63;;;0.63;;
18383;SDS011;9318;48.644;9.456;2023-09-19T12:24:05;0.50;;;0.50;;
18383;SDS011;9318;48.644;9.456;2023-09-19T12:26:41;0.60;;;0.60;;
18383;SDS011;9318;48.644;9.456;2023-09-19T12:29:12;0.60;;;0.60;;
18383;SDS011;9318;48.644;9.456;2023-09-19T12:31:47;0.60;;;0.60;;
18383;SDS011;9318;48.644;9.456;2023-09-19T12:34:16;0.60;;;0.60;;
18383;SDS011;9318;48.644;9.456;2023-09-19T12:36:46;0.60;;;0.60;;
18383;SDS011;9318;48.644;9.456;2023-09-19T12:39:23;0.60;;;0.60;;
18383;SDS011;9318;48.644;9.456;2023-09-19T12:41:53;0.50;;;0.50;;
18383;SDS011;9318;48.644;9.456;2023-09-19T12:44:20;0.50;;;0.50;;
18383;SDS011;9318;48.644;9.456;2023-09-19T12:46:50;0.50;;;0.50;;
18383;SDS011;9318;48.644;9.456;2023-09-19T12:49:17;0.60;;;0.60;;
18383;SDS011;9318;48.644;9.456;2023-09-19T12:51:45;0.50;;;0.50;;
18383;SDS011;9318;48.644;9.456;2023-09-19T12:54:12;0.57;;;0.57;;
18383;SDS011;9318;48.644;9.456;2023-09-19T12:56:41;0.60;;;0.60;;
18383;SDS011;9318;48.644;9.456;2023-09-19T12:59:11;0.50;;;0.50;;
18383;SDS011;9318;48.644;9.456;2023-09-19T13:01:39;0.45;;;0.45;;
18383;SDS011;9318;48.644;9.456;2023-09-19T13:04:10;0.45;;;0.45;;
18383;SDS011;9318;48.644;9.456;2023-09-19T13:06:40;0.60;;;0.60;;
18383;SDS011;9318;48.644;9.456;2023-09-19T13:09:09;0.47;;;0.47;;
18383;SDS011;9318;48.644;9.456;2023-09-19T13:11:36;0.60;;;0.60;;
18383;SDS011;9318;48.644;9.456;2023-09-19T13:14:17;0.60;;;0.60;;
18383;SDS011;9318;48.644;9.456;2023-09-19T13:16:58;0.50;;;0.50;;
18383;SDS011;9318;48.644;9.456;2023-09-19T13:19:39;0.50;;;0.50;;
18383;SDS011;9318;48.644;9.456;2023-09-19T13:25:08;0.50;;;0.50;;
18383;SDS011;9318;48.644;9.456;2023-09-19T13:27:39;0.50;;;0.50;;
18383;SDS011;9318;48.644;9.456;2023-09-19T13:30:08;0.50;;;0.50;;
18383;SDS011;9318;48.644;9.456;2023-09-19T13:32:35;0.40;;;0.40;;
18383;SDS011;9318;48.644;9.456;2023-09-19T13:35:05;0.52;;;0.52;;
18383;SDS011;9318;48.644;9.456;2023-09-19T13:37:34;0.40;;;0.40;;
18383;SDS011;9318;48.644;9.456;2023-09-19T13:40:01;0.50;;;0.50;;
18383;SDS011;9318;48.644;9.456;2023-09-19T13:42:30;0.60;;;0.60;;
18383;SDS011;9318;48.644;9.456;2023-09-19T13:44:57;0.55;;;0.55;;
18383;SDS011;9318;48.644;9.456;2023-09-19T13:47:25;0.50;;;0.50;;
18383;SDS011;9318;48.644;9.456;2023-09-19T13:49:52;0.50;;;0.50;;
18383;SDS011;9318;48.644;9.456;2023-09-19T13:52:19;0.50;;;0.50;;
18383;SDS011;9318;48.644;9.456;2023-09-19T13:54:46;0.60;;;0.60;;
18383;SDS011;9318;48.644;9.456;2023-09-19T13:57:13;0.50;;;0.50;;
18383;SDS011;9318;48.644;9.456;2023-09-19T13:59:40;0.45;;;0.45;;
18383;SDS011;9318;48.644;9.456;2023-09-19T14:02:07;0.50;;;0.50;;
18383;SDS011;9318;48.644;9.456;2023-09-19T14:04:35;0.40;;;0.40;;
18383;SDS011;9318;48.644;9.456;2023-09-19T14:07:01;0.50;;;0.50;;
18383;SDS011;9318;48.644;9.456;2023-09-19T14:09:29;0.50;;;0.50;;
18383;SDS011;9318;48.644;9.456;2023-09-19T14:11:56;0.40;;;0.40;;
18383;SDS011;9318;48.644;9.456;2023-09-19T14:14:22;0.60;;;0.60;;
18383;SDS011;9318;48.644;9.456;2023-09-19T14:16:49;0.50;;;0.50;;
18383;SDS011;9318;48.644;9.456;2023-09-19T14:19:17;0.50;;;0.50;;
18383;SDS011;9318;48.644;9.456;2023-09-19T14:21:45;0.60;;;0.60;;
18383;SDS011;9318;48.644;9.456;2023-09-19T14:24:16;0.50;;;0.50;;
18383;SDS011;9318;48.644;9.456;2023-09-19T14:26:43;0.50;;;0.50;;
18383;SDS011;9318;48.644;9.456;2023-09-19T14:29:09;0.60;;;0.60;;
18383;SDS011;9318;48.644;9.456;2023-09-19T14:31:36;0.60;;;0.60;;
18383;SDS011;9318;48.644;9.456;2023-09-19T14:34:05;0.50;;;0.50;;
18383;SDS011;9318;48.644;9.456;2023-09-19T14:36:32;0.50;;;0.50;;
18383;SDS011;9318;48.644;9.456;2023-09-19T14:39:00;0.55;;;0.55;;
18383;SDS011;9318;48.644;9.456;2023-09-19T14:41:27;0.60;;;0.60;;
18383;SDS011;9318;48.644;9.456;2023-09-19T14:43:56;0.50;;;0.50;;
18383;SDS011;9318;48.644;9.456;2023-09-19T14:46:23;0.52;;;0.52;;
18383;SDS011;9318;48.644;9.456;2023-09-19T14:48:50;0.45;;;0.45;;
18383;SDS011;9318;48.644;9.456;2023-09-19T14:51:17;0.60;;;0.60;;
18383;SDS011;9318;48.644;9.456;2023-09-19T14:53:45;0.60;;;0.60;;
18383;SDS011;9318;48.644;9.456;2023-09-19T14:56:13;0.70;;;0.70;;
18383;SDS011;9318;48.644;9.456;2023-09-19T14:58:45;0.60;;;0.60;;
18383;SDS011;9318;48.644;9.456;2023-09-19T15:01:12;0.50;;;0.50;;
18383;SDS011;9318;48.644;9.456;2023-09-19T15:03:40;0.60;;;0.60;;
18383;SDS011;9318;48.644;9.456;2023-09-19T15:06:07;0.50;;;0.50;;
18383;SDS011;9318;48.644;9.456;2023-09-19T15:08:39;0.50;;;0.50;;
18383;SDS011;9318;48.644;9.456;2023-09-19T15:11:11;0.70;;;0.70;;
18383;SDS011;9318;48.644;9.456;2023-09-19T15:13:39;0.47;;;0.47;;
18383;SDS011;9318;48.644;9.456;2023-09-19T15:16:07;0.60;;;0.60;;
18383;SDS011;9318;48.644;9.456;2023-09-19T15:18:35;0.70;;;0.70;;
18383;SDS011;9318;48.644;9.456;2023-09-19T15:21:04;0.60;;;0.60;;
18383;SDS011;9318;48.644;9.456;2023-09-19T15:23:31;0.60;;;0.60;;
18383;SDS011;9318;48.644;9.456;2023-09-19T15:25:59;0.57;;;0.57;;
18383;SDS011;9318;48.644;9.456;2023-09-19T15:28:26;0.50;;;0.50;;
18383;SDS011;9318;48.644;9.456;2023-09-19T15:30:58;0.60;;;0.60;;
18383;SDS011;9318;48.644;9.456;2023-09-19T15:33:25;0.60;;;0.60;;
18383;SDS011;9318;48.644;9.456;2023-09-19T15:35:59;0.60;;;0.60;;